sensor_id;sensor_type;location;lat;lon;timestamp;P1;durP1;ratioP1;P2;durP2;ratioP2
55013;SDS011;40916;51.632;5.552;2022-12-07T00:00:00;7.6;;;13.3;;
55013;SDS011;40916;51.632;5.552;2022-12-07T00:05:00;8.8;;;14.6;;
55013;SDS011;40916;51.632;5.552;2022-12-07T00:10:00;8;;;13.1;;
55013;SDS011;40916;51.632;5.552;2022-12-07T00:15:00;6.4;;;13.1;;
55013;SDS011;40916;51.632;5.552;2022-12-07T00:20:00;8;;;14.5;;
55013;SDS011;40916;51.632;5.552;2022-12-07T00:25:00;8.4;;;20.7;;
55013;SDS011;40916;51.632;5.552;2022-12-07T00:30:00;8.3;;;13.9;;
55013;SDS011;40916;51.632;5.552;2022-12-07T00:35:00;8.5;;;20;;
55013;SDS011;40916;51.632;5.552;2022-12-07T00:40:00;8.5;;;17.9;;
55013;SDS011;40916;51.632;5.552;2022-12-07T00:45:00;9.2;;;14.2;;
55013;SDS011;40916;51.632;5.552;2022-12-07T00:50:00;7.4;;;13.3;;
55013;SDS011;40916;51.632;5.552;2022-12-07T00:55:00;7.8;;;16.1;;
55013;SDS011;40916;51.632;5.552;2022-12-07T01:00:00;9.3;;;14.9;;
55013;SDS011;40916;51.632;5.552;2022-12-07T01:05:00;7.6;;;10.2;;
55013;SDS011;40916;51.632;5.552;2022-12-07T01:10:00;7.7;;;14.1;;
55013;SDS011;40916;51.632;5.552;2022-12-07T01:15:00;7.4;;;12.7;;
55013;SDS011;40916;51.632;5.552;2022-12-07T01:20:00;7.8;;;15.6;;
55013;SDS011;40916;51.632;5.552;2022-12-07T01:25:00;8.1;;;11.2;;
55013;SDS011;40916;51.632;5.552;2022-12-07T01:30:00;7.2;;;15.3;;
55013;SDS011;40916;51.632;5.552;2022-12-07T01:35:00;7;;;13.9;;
55013;SDS011;40916;51.632;5.552;2022-12-07T01:40:00;7.4;;;15;;
55013;SDS011;40916;51.632;5.552;2022-12-07T01:45:31;7.4;;;15.7;;
55013;SDS011;40916;51.632;5.552;2022-12-07T01:49:59;6.6;;;16.1;;
55013;SDS011;40916;51.632;5.552;2022-12-07T01:55:00;6.8;;;10.3;;
55013;SDS011;40916;51.632;5.552;2022-12-07T01:59:59;7.5;;;14.3;;
55013;SDS011;40916;51.632;5.552;2022-12-07T02:05:00;8.3;;;18.1;;
55013;SDS011;40916;51.632;5.552;2022-12-07T02:10:11;7.6;;;13.7;;
55013;SDS011;40916;51.632;5.552;2022-12-07T02:14:59;6.7;;;11.6;;
55013;SDS011;40916;51.632;5.552;2022-12-07T02:20:03;7.3;;;14.9;;
55013;SDS011;40916;51.632;5.552;2022-12-07T02:25:02;7;;;16;;
55013;SDS011;40916;51.632;5.552;2022-12-07T02:30:00;7.6;;;12.6;;
55013;SDS011;40916;51.632;5.552;2022-12-07T02:35:01;7.4;;;12.9;;
55013;SDS011;40916;51.632;5.552;2022-12-07T02:40:00;7;;;12.6;;
55013;SDS011;40916;51.632;5.552;2022-12-07T02:44:59;6.5;;;10.5;;
55013;SDS011;40916;51.632;5.552;2022-12-07T02:50:00;5.1;;;10.6;;
55013;SDS011;40916;51.632;5.552;2022-12-07T02:54:59;6.3;;;12.3;;
55013;SDS011;40916;51.632;5.552;2022-12-07T03:00:00;6.7;;;12.8;;
55013;SDS011;40916;51.632;5.552;2022-12-07T03:05:02;7.1;;;18.5;;
55013;SDS011;40916;51.632;5.552;2022-12-07T03:10:01;6.3;;;10.7;;
55013;SDS011;40916;51.632;5.552;2022-12-07T03:15:00;6.4;;;11.2;;
55013;SDS011;40916;51.632;5.552;2022-12-07T03:20:00;7;;;12.6;;
55013;SDS011;40916;51.632;5.552;2022-12-07T03:25:01;6.8;;;13.1;;
55013;SDS011;40916;51.632;5.552;2022-12-07T03:30:00;6.9;;;13.3;;
55013;SDS011;40916;51.632;5.552;2022-12-07T03:35:01;6.6;;;16.2;;
55013;SDS011;40916;51.632;5.552;2022-12-07T03:40:02;7.4;;;13.1;;
55013;SDS011;40916;51.632;5.552;2022-12-07T03:44:59;5.4;;;14.3;;
55013;SDS011;40916;51.632;5.552;2022-12-07T03:50:00;5.4;;;12.1;;
55013;SDS011;40916;51.632;5.552;2022-12-07T03:55:00;5.5;;;13.9;;
55013;SDS011;40916;51.632;5.552;2022-12-07T03:59:59;5.6;;;15.3;;
55013;SDS011;40916;51.632;5.552;2022-12-07T04:05:00;5.3;;;12.5;;
55013;SDS011;40916;51.632;5.552;2022-12-07T04:09:59;4.8;;;12.1;;
55013;SDS011;40916;51.632;5.552;2022-12-07T04:14:59;5;;;13.8;;
55013;SDS011;40916;51.632;5.552;2022-12-07T04:19:59;4.1;;;9.1;;
55013;SDS011;40916;51.632;5.552;2022-12-07T04:24:59;4.2;;;13.6;;
55013;SDS011;40916;51.632;5.552;2022-12-07T04:29:59;4.3;;;10.9;;
55013;SDS011;40916;51.632;5.552;2022-12-07T04:34:59;4.9;;;12.3;;
55013;SDS011;40916;51.632;5.552;2022-12-07T04:39:59;4.3;;;11.9;;
55013;SDS011;40916;51.632;5.552;2022-12-07T04:44:59;3.8;;;7.8;;
55013;SDS011;40916;51.632;5.552;2022-12-07T04:49:59;4.3;;;10.1;;
55013;SDS011;40916;51.632;5.552;2022-12-07T04:54:59;3.8;;;9.4;;
55013;SDS011;40916;51.632;5.552;2022-12-07T04:59:59;4.1;;;7.9;;
55013;SDS011;40916;51.632;5.552;2022-12-07T05:04:59;4.5;;;11.9;;
55013;SDS011;40916;51.632;5.552;2022-12-07T05:09:59;4.4;;;11.9;;
55013;SDS011;40916;51.632;5.552;2022-12-07T05:14:59;3.9;;;11.8;;
55013;SDS011;40916;51.632;5.552;2022-12-07T05:19:59;3.9;;;9.2;;
55013;SDS011;40916;51.632;5.552;2022-12-07T05:24:59;3.6;;;7.2;;
55013;SDS011;40916;51.632;5.552;2022-12-07T05:29:59;3.2;;;6.8;;
55013;SDS011;40916;51.632;5.552;2022-12-07T05:34:59;3.8;;;10.5;;
55013;SDS011;40916;51.632;5.552;2022-12-07T05:39:59;3.8;;;8.9;;
55013;SDS011;40916;51.632;5.552;2022-12-07T05:44:59;3.8;;;9.6;;
55013;SDS011;40916;51.632;5.552;2022-12-07T05:49:59;3.8;;;9.5;;
55013;SDS011;40916;51.632;5.552;2022-12-07T05:54:59;4.7;;;8.5;;
55013;SDS011;40916;51.632;5.552;2022-12-07T05:59:59;3.7;;;10.9;;
55013;SDS011;40916;51.632;5.552;2022-12-07T06:04:59;4.3;;;10.7;;
55013;SDS011;40916;51.632;5.552;2022-12-07T06:09:59;3.5;;;7.4;;
55013;SDS011;40916;51.632;5.552;2022-12-07T06:14:59;3.7;;;10.2;;
55013;SDS011;40916;51.632;5.552;2022-12-07T06:19:59;3.9;;;12.4;;
55013;SDS011;40916;51.632;5.552;2022-12-07T06:24:59;4.5;;;9.4;;
55013;SDS011;40916;51.632;5.552;2022-12-07T06:29:59;4.5;;;12.5;;
55013;SDS011;40916;51.632;5.552;2022-12-07T06:34:59;4.7;;;10.2;;
55013;SDS011;40916;51.632;5.552;2022-12-07T06:39:59;4.9;;;10.2;;
55013;SDS011;40916;51.632;5.552;2022-12-07T06:44:59;4.5;;;9.7;;
55013;SDS011;40916;51.632;5.552;2022-12-07T06:49:59;5.1;;;11.5;;
55013;SDS011;40916;51.632;5.552;2022-12-07T06:54:59;4.9;;;9.9;;
55013;SDS011;40916;51.632;5.552;2022-12-07T06:59:59;4.4;;;11.5;;
55013;SDS011;40916;51.632;5.552;2022-12-07T07:04:59;5.4;;;11.4;;
55013;SDS011;40916;51.632;5.552;2022-12-07T07:09:59;4;;;10.1;;
55013;SDS011;40916;51.632;5.552;2022-12-07T07:14:59;5;;;12.3;;
55013;SDS011;40916;51.632;5.552;2022-12-07T07:19:59;5.1;;;9.7;;
55013;SDS011;40916;51.632;5.552;2022-12-07T07:24:59;5.4;;;14.7;;
55013;SDS011;40916;51.632;5.552;2022-12-07T07:29:59;5.8;;;16.2;;
55013;SDS011;40916;51.632;5.552;2022-12-07T07:34:59;5.7;;;14.4;;
55013;SDS011;40916;51.632;5.552;2022-12-07T07:39:59;6.3;;;14.5;;
55013;SDS011;40916;51.632;5.552;2022-12-07T07:44:59;5;;;16.4;;
55013;SDS011;40916;51.632;5.552;2022-12-07T07:49:59;6;;;13.1;;
55013;SDS011;40916;51.632;5.552;2022-12-07T07:54:59;6.6;;;17;;
55013;SDS011;40916;51.632;5.552;2022-12-07T07:59:59;6;;;13.7;;
55013;SDS011;40916;51.632;5.552;2022-12-07T08:04:59;5.8;;;11;;
55013;SDS011;40916;51.632;5.552;2022-12-07T08:09:59;6.6;;;19;;
55013;SDS011;40916;51.632;5.552;2022-12-07T08:14:59;6;;;12.5;;
55013;SDS011;40916;51.632;5.552;2022-12-07T08:19:59;4.8;;;13.7;;
55013;SDS011;40916;51.632;5.552;2022-12-07T08:24:59;5.3;;;19.1;;
55013;SDS011;40916;51.632;5.552;2022-12-07T08:29:59;5.4;;;11.7;;
55013;SDS011;40916;51.632;5.552;2022-12-07T08:34:59;2.5;;;8.4;;
55013;SDS011;40916;51.632;5.552;2022-12-07T08:39:59;4.9;;;9.9;;
55013;SDS011;40916;51.632;5.552;2022-12-07T08:44:59;5.4;;;16.3;;
55013;SDS011;40916;51.632;5.552;2022-12-07T08:49:59;4.9;;;11.6;;
55013;SDS011;40916;51.632;5.552;2022-12-07T08:54:59;5.1;;;17;;
55013;SDS011;40916;51.632;5.552;2022-12-07T08:59:59;2.7;;;4.9;;
55013;SDS011;40916;51.632;5.552;2022-12-07T09:04:59;3.4;;;8;;
55013;SDS011;40916;51.632;5.552;2022-12-07T09:09:59;2.6;;;5.3;;
55013;SDS011;40916;51.632;5.552;2022-12-07T09:14:59;1.9;;;6.6;;
55013;SDS011;40916;51.632;5.552;2022-12-07T09:19:59;2.2;;;4;;
55013;SDS011;40916;51.632;5.552;2022-12-07T09:24:59;2.2;;;6.5;;
55013;SDS011;40916;51.632;5.552;2022-12-07T09:29:59;2.5;;;7.5;;
55013;SDS011;40916;51.632;5.552;2022-12-07T09:34:59;3.8;;;14.1;;
55013;SDS011;40916;51.632;5.552;2022-12-07T09:39:59;3;;;9.7;;
55013;SDS011;40916;51.632;5.552;2022-12-07T09:44:59;3.4;;;9.1;;
55013;SDS011;40916;51.632;5.552;2022-12-07T09:50:00;2.7;;;5.4;;
55013;SDS011;40916;51.632;5.552;2022-12-07T09:54:59;4.1;;;12.7;;
55013;SDS011;40916;51.632;5.552;2022-12-07T09:59:59;2.8;;;10.3;;
55013;SDS011;40916;51.632;5.552;2022-12-07T10:04:59;2.9;;;7.5;;
55013;SDS011;40916;51.632;5.552;2022-12-07T10:09:59;2.6;;;10.7;;
55013;SDS011;40916;51.632;5.552;2022-12-07T10:15:00;2.6;;;13.1;;
55013;SDS011;40916;51.632;5.552;2022-12-07T10:20:16;2.7;;;11.1;;
55013;SDS011;40916;51.632;5.552;2022-12-07T10:25:07;3.4;;;10.1;;
55013;SDS011;40916;51.632;5.552;2022-12-07T10:29:59;2;;;7.1;;
55013;SDS011;40916;51.632;5.552;2022-12-07T10:35:17;1.5;;;3.1;;
55013;SDS011;40916;51.632;5.552;2022-12-07T10:39:59;1.6;;;4.6;;
55013;SDS011;40916;51.632;5.552;2022-12-07T10:45:07;2.4;;;13.8;;
55013;SDS011;40916;51.632;5.552;2022-12-07T10:50:02;2.2;;;9.3;;
55013;SDS011;40916;51.632;5.552;2022-12-07T10:55:03;2.6;;;8;;
55013;SDS011;40916;51.632;5.552;2022-12-07T11:00:01;4.7;;;13;;
55013;SDS011;40916;51.632;5.552;2022-12-07T11:05:01;1.7;;;4.4;;
55013;SDS011;40916;51.632;5.552;2022-12-07T11:10:01;2.6;;;10.4;;
55013;SDS011;40916;51.632;5.552;2022-12-07T11:15:00;3.1;;;8.7;;
55013;SDS011;40916;51.632;5.552;2022-12-07T11:20:01;2.6;;;8.3;;
55013;SDS011;40916;51.632;5.552;2022-12-07T11:25:00;3.3;;;8.4;;
55013;SDS011;40916;51.632;5.552;2022-12-07T11:30:02;3.3;;;14.6;;
55013;SDS011;40916;51.632;5.552;2022-12-07T11:35:01;2.6;;;11.8;;
55013;SDS011;40916;51.632;5.552;2022-12-07T11:39:59;2.3;;;8.7;;
55013;SDS011;40916;51.632;5.552;2022-12-07T11:44:59;3.1;;;10.9;;
55013;SDS011;40916;51.632;5.552;2022-12-07T11:50:01;1.4;;;3.2;;
55013;SDS011;40916;51.632;5.552;2022-12-07T11:54:59;2.5;;;11.6;;
55013;SDS011;40916;51.632;5.552;2022-12-07T12:00:00;3;;;13.6;;
55013;SDS011;40916;51.632;5.552;2022-12-07T12:05:01;2.6;;;7.4;;
55013;SDS011;40916;51.632;5.552;2022-12-07T12:09:59;3;;;9.6;;
55013;SDS011;40916;51.632;5.552;2022-12-07T12:15:02;3.3;;;13.4;;
55013;SDS011;40916;51.632;5.552;2022-12-07T12:20:00;2.5;;;5.2;;
55013;SDS011;40916;51.632;5.552;2022-12-07T12:24:59;3;;;9.6;;
55013;SDS011;40916;51.632;5.552;2022-12-07T12:29:59;3;;;11.6;;
55013;SDS011;40916;51.632;5.552;2022-12-07T12:35:00;1.8;;;7.1;;
55013;SDS011;40916;51.632;5.552;2022-12-07T12:40:12;2.4;;;11.2;;
55013;SDS011;40916;51.632;5.552;2022-12-07T12:50:11;2.2;;;8.9;;
55013;SDS011;40916;51.632;5.552;2022-12-07T12:54:59;1.8;;;6.9;;
55013;SDS011;40916;51.632;5.552;2022-12-07T12:59:59;1.4;;;7.9;;
55013;SDS011;40916;51.632;5.552;2022-12-07T13:04:59;1.4;;;5.9;;
55013;SDS011;40916;51.632;5.552;2022-12-07T13:09:59;1.4;;;4.8;;
55013;SDS011;40916;51.632;5.552;2022-12-07T13:14:59;2;;;9.9;;
55013;SDS011;40916;51.632;5.552;2022-12-07T13:19:59;2.1;;;10.4;;
55013;SDS011;40916;51.632;5.552;2022-12-07T13:24:59;2.3;;;7.1;;
55013;SDS011;40916;51.632;5.552;2022-12-07T13:29:59;2.5;;;12.8;;
55013;SDS011;40916;51.632;5.552;2022-12-07T13:34:59;2.1;;;8.9;;
55013;SDS011;40916;51.632;5.552;2022-12-07T13:39:59;2.3;;;11;;
55013;SDS011;40916;51.632;5.552;2022-12-07T13:45:01;1.8;;;6.7;;
55013;SDS011;40916;51.632;5.552;2022-12-07T13:49:59;1.4;;;4.8;;
55013;SDS011;40916;51.632;5.552;2022-12-07T13:54:59;1.3;;;5.9;;
55013;SDS011;40916;51.632;5.552;2022-12-07T13:59:59;1.7;;;6.2;;
55013;SDS011;40916;51.632;5.552;2022-12-07T14:05:06;1;;;2.8;;
55013;SDS011;40916;51.632;5.552;2022-12-07T14:09:59;1.3;;;4.9;;
55013;SDS011;40916;51.632;5.552;2022-12-07T14:14:59;1.3;;;6.7;;
55013;SDS011;40916;51.632;5.552;2022-12-07T14:19:59;2;;;6.1;;
55013;SDS011;40916;51.632;5.552;2022-12-07T14:25:00;2.2;;;9.4;;
55013;SDS011;40916;51.632;5.552;2022-12-07T14:29:59;2.7;;;9.9;;
55013;SDS011;40916;51.632;5.552;2022-12-07T14:34:59;1.2;;;6.4;;
55013;SDS011;40916;51.632;5.552;2022-12-07T14:39:58;0.5;;;1.9;;
55013;SDS011;40916;51.632;5.552;2022-12-07T14:44:58;0.8;;;4.5;;
55013;SDS011;40916;51.632;5.552;2022-12-07T14:49:58;1.1;;;3.5;;
55013;SDS011;40916;51.632;5.552;2022-12-07T14:54:58;1.1;;;5.5;;
55013;SDS011;40916;51.632;5.552;2022-12-07T14:59:58;1.3;;;8.6;;
55013;SDS011;40916;51.632;5.552;2022-12-07T15:04:58;1.4;;;5.7;;
55013;SDS011;40916;51.632;5.552;2022-12-07T15:09:58;1.3;;;5.9;;
55013;SDS011;40916;51.632;5.552;2022-12-07T15:14:58;1.2;;;6.1;;
55013;SDS011;40916;51.632;5.552;2022-12-07T15:19:58;1;;;4;;
55013;SDS011;40916;51.632;5.552;2022-12-07T15:24:58;1.1;;;8.4;;
55013;SDS011;40916;51.632;5.552;2022-12-07T15:29:58;1.2;;;3.4;;
55013;SDS011;40916;51.632;5.552;2022-12-07T15:34:58;1.1;;;8.9;;
55013;SDS011;40916;51.632;5.552;2022-12-07T15:39:58;1.7;;;6;;
55013;SDS011;40916;51.632;5.552;2022-12-07T15:44:58;1.9;;;6.6;;
55013;SDS011;40916;51.632;5.552;2022-12-07T15:49:58;1.4;;;4.2;;
55013;SDS011;40916;51.632;5.552;2022-12-07T15:54:58;1.5;;;6.2;;
55013;SDS011;40916;51.632;5.552;2022-12-07T15:59:58;1.2;;;4.5;;
55013;SDS011;40916;51.632;5.552;2022-12-07T16:04:58;1.2;;;3.4;;
55013;SDS011;40916;51.632;5.552;2022-12-07T16:09:58;1.5;;;4.1;;
55013;SDS011;40916;51.632;5.552;2022-12-07T16:14:58;1.5;;;3.9;;
55013;SDS011;40916;51.632;5.552;2022-12-07T16:19:58;1.3;;;4.5;;
55013;SDS011;40916;51.632;5.552;2022-12-07T16:24:58;1.8;;;5.5;;
55013;SDS011;40916;51.632;5.552;2022-12-07T16:29:58;2.4;;;7.5;;
55013;SDS011;40916;51.632;5.552;2022-12-07T16:34:58;2.8;;;7;;
55013;SDS011;40916;51.632;5.552;2022-12-07T16:39:58;2.4;;;4.7;;
55013;SDS011;40916;51.632;5.552;2022-12-07T16:44:58;2.7;;;8.7;;
55013;SDS011;40916;51.632;5.552;2022-12-07T16:49:58;3.3;;;11.3;;
55013;SDS011;40916;51.632;5.552;2022-12-07T16:54:58;2.8;;;7;;
55013;SDS011;40916;51.632;5.552;2022-12-07T16:59:58;2.4;;;5.9;;
55013;SDS011;40916;51.632;5.552;2022-12-07T17:04:58;4.1;;;9.4;;
55013;SDS011;40916;51.632;5.552;2022-12-07T17:09:58;4.8;;;12.2;;
55013;SDS011;40916;51.632;5.552;2022-12-07T17:14:58;6.3;;;11.6;;
55013;SDS011;40916;51.632;5.552;2022-12-07T17:19:58;4.8;;;10;;
55013;SDS011;40916;51.632;5.552;2022-12-07T17:24:58;4.6;;;7.6;;
55013;SDS011;40916;51.632;5.552;2022-12-07T17:29:58;4.8;;;9.9;;
55013;SDS011;40916;51.632;5.552;2022-12-07T17:34:58;4.2;;;9.4;;
55013;SDS011;40916;51.632;5.552;2022-12-07T17:39:58;4.5;;;12.6;;
55013;SDS011;40916;51.632;5.552;2022-12-07T17:44:58;3.7;;;8.6;;
55013;SDS011;40916;51.632;5.552;2022-12-07T17:49:58;3.3;;;5.7;;
55013;SDS011;40916;51.632;5.552;2022-12-07T17:54:58;3.3;;;7.3;;
55013;SDS011;40916;51.632;5.552;2022-12-07T17:59:58;3.9;;;6.3;;
55013;SDS011;40916;51.632;5.552;2022-12-07T18:04:58;3.6;;;10.1;;
55013;SDS011;40916;51.632;5.552;2022-12-07T18:09:58;4.5;;;7.6;;
55013;SDS011;40916;51.632;5.552;2022-12-07T18:14:58;3.5;;;8.7;;
55013;SDS011;40916;51.632;5.552;2022-12-07T18:19:58;4.4;;;13.6;;
55013;SDS011;40916;51.632;5.552;2022-12-07T18:24:58;3.9;;;7.7;;
55013;SDS011;40916;51.632;5.552;2022-12-07T18:29:58;4.4;;;8.8;;
55013;SDS011;40916;51.632;5.552;2022-12-07T18:34:58;4.1;;;9.9;;
55013;SDS011;40916;51.632;5.552;2022-12-07T18:39:58;3;;;9.6;;
55013;SDS011;40916;51.632;5.552;2022-12-07T18:44:58;2.6;;;7;;
55013;SDS011;40916;51.632;5.552;2022-12-07T18:49:58;2.9;;;8;;
55013;SDS011;40916;51.632;5.552;2022-12-07T18:54:58;3.8;;;8;;
55013;SDS011;40916;51.632;5.552;2022-12-07T18:59:58;3.7;;;10.6;;
55013;SDS011;40916;51.632;5.552;2022-12-07T19:04:58;2.4;;;3.8;;
55013;SDS011;40916;51.632;5.552;2022-12-07T19:09:58;3.6;;;7.2;;
55013;SDS011;40916;51.632;5.552;2022-12-07T19:14:58;3.4;;;6.6;;
55013;SDS011;40916;51.632;5.552;2022-12-07T19:19:58;3;;;6.4;;
55013;SDS011;40916;51.632;5.552;2022-12-07T19:24:58;2.7;;;7.8;;
55013;SDS011;40916;51.632;5.552;2022-12-07T19:29:58;3.3;;;6.3;;
55013;SDS011;40916;51.632;5.552;2022-12-07T19:34:58;2.5;;;8.3;;
55013;SDS011;40916;51.632;5.552;2022-12-07T19:39:58;3;;;8.5;;
55013;SDS011;40916;51.632;5.552;2022-12-07T19:44:58;2.5;;;8.2;;
55013;SDS011;40916;51.632;5.552;2022-12-07T19:49:58;2.8;;;6.5;;
55013;SDS011;40916;51.632;5.552;2022-12-07T19:54:58;3.2;;;7.1;;
55013;SDS011;40916;51.632;5.552;2022-12-07T19:59:58;3.3;;;11.6;;
55013;SDS011;40916;51.632;5.552;2022-12-07T20:04:58;2.6;;;6.4;;
55013;SDS011;40916;51.632;5.552;2022-12-07T20:09:58;3.3;;;12.5;;
55013;SDS011;40916;51.632;5.552;2022-12-07T20:14:58;2.7;;;12.1;;
55013;SDS011;40916;51.632;5.552;2022-12-07T20:19:58;4.2;;;11.8;;
55013;SDS011;40916;51.632;5.552;2022-12-07T20:24:58;3.6;;;13.3;;
55013;SDS011;40916;51.632;5.552;2022-12-07T20:29:58;3.3;;;7;;
55013;SDS011;40916;51.632;5.552;2022-12-07T20:34:58;5;;;11.2;;
55013;SDS011;40916;51.632;5.552;2022-12-07T20:39:58;3.5;;;7;;
55013;SDS011;40916;51.632;5.552;2022-12-07T20:44:58;3.3;;;8.4;;
55013;SDS011;40916;51.632;5.552;2022-12-07T20:49:58;3.2;;;9.5;;
55013;SDS011;40916;51.632;5.552;2022-12-07T20:54:58;3.5;;;10.1;;
55013;SDS011;40916;51.632;5.552;2022-12-07T20:59:58;4;;;9.5;;
55013;SDS011;40916;51.632;5.552;2022-12-07T21:04:58;4;;;11.6;;
55013;SDS011;40916;51.632;5.552;2022-12-07T21:09:58;3.4;;;8.3;;
55013;SDS011;40916;51.632;5.552;2022-12-07T21:14:58;3.5;;;7;;
55013;SDS011;40916;51.632;5.552;2022-12-07T21:19:58;3.1;;;9.8;;
55013;SDS011;40916;51.632;5.552;2022-12-07T21:24:58;2.4;;;4.7;;
55013;SDS011;40916;51.632;5.552;2022-12-07T21:29:58;3.1;;;9.8;;
55013;SDS011;40916;51.632;5.552;2022-12-07T21:34:58;3.5;;;10;;
55013;SDS011;40916;51.632;5.552;2022-12-07T21:39:58;2.2;;;5.3;;
55013;SDS011;40916;51.632;5.552;2022-12-07T21:44:58;2.7;;;6;;
55013;SDS011;40916;51.632;5.552;2022-12-07T21:49:58;3.5;;;13.3;;
55013;SDS011;40916;51.632;5.552;2022-12-07T21:54:58;3.1;;;9.2;;
55013;SDS011;40916;51.632;5.552;2022-12-07T21:59:58;3.2;;;5.9;;
55013;SDS011;40916;51.632;5.552;2022-12-07T22:04:58;3.1;;;8.6;;
55013;SDS011;40916;51.632;5.552;2022-12-07T22:09:58;3.6;;;12.9;;
55013;SDS011;40916;51.632;5.552;2022-12-07T22:14:58;3;;;8.1;;
55013;SDS011;40916;51.632;5.552;2022-12-07T22:19:58;3.6;;;10.2;;
55013;SDS011;40916;51.632;5.552;2022-12-07T22:24:58;2.6;;;7;;
55013;SDS011;40916;51.632;5.552;2022-12-07T22:29:58;2.8;;;8.2;;
55013;SDS011;40916;51.632;5.552;2022-12-07T22:34:58;3.2;;;9.2;;
55013;SDS011;40916;51.632;5.552;2022-12-07T22:39:58;2.5;;;8.3;;
55013;SDS011;40916;51.632;5.552;2022-12-07T22:44:58;2.1;;;6;;
55013;SDS011;40916;51.632;5.552;2022-12-07T22:49:58;1.9;;;5.4;;
55013;SDS011;40916;51.632;5.552;2022-12-07T22:54:58;2.7;;;5.6;;
55013;SDS011;40916;51.632;5.552;2022-12-07T22:59:58;3.7;;;6.1;;
55013;SDS011;40916;51.632;5.552;2022-12-07T23:04:58;3.1;;;7.2;;
55013;SDS011;40916;51.632;5.552;2022-12-07T23:09:58;4.5;;;11.9;;
55013;SDS011;40916;51.632;5.552;2022-12-07T23:14:58;5;;;9.5;;
55013;SDS011;40916;51.632;5.552;2022-12-07T23:19:58;5.5;;;10.4;;
55013;SDS011;40916;51.632;5.552;2022-12-07T23:24:58;5.4;;;11.6;;
55013;SDS011;40916;51.632;5.552;2022-12-07T23:29:58;7.8;;;15;;
55013;SDS011;40916;51.632;5.552;2022-12-07T23:34:58;5.4;;;9.2;;
55013;SDS011;40916;51.632;5.552;2022-12-07T23:39:58;4;;;6.5;;
55013;SDS011;40916;51.632;5.552;2022-12-07T23:44:58;6.6;;;14.1;;
55013;SDS011;40916;51.632;5.552;2022-12-07T23:49:58;7.5;;;13.6;;
55013;SDS011;40916;51.632;5.552;2022-12-07T23:54:58;10.3;;;22.1;;
55013;SDS011;40916;51.632;5.552;2022-12-07T23:59:58;10;;;14.6;;
